Time;durP1;ratioP1;P1;durP2;ratioP2;P2;SDS_P1;SDS_P2;PMS_P1;PMS_P2;Temp;Humidity;BMP_temperature;BMP_pressure;BME280_temperature;BME280_humidity;BME280_pressure;Samples;Min_cycle;Max_cycle;Signal;HPM_P1;HPM_P2
2024/01/17 00:00:49;;;;;;;5.57;4.07;;;3.20;80.90;;;;;;4734801;30;20028;-93
2024/01/17 00:03:15;;;;;;;5.25;4.22;;;3.20;80.90;;;;;;4733071;30;20032;-93
2024/01/17 00:05:40;;;;;;;6.65;4.60;;;3.10;80.90;;;;;;4719254;30;20123;-94
2024/01/17 00:08:06;;;;;;;5.68;4.45;;;3.10;80.90;;;;;;4728870;30;20505;-94
2024/01/17 00:10:32;;;;;;;5.82;4.40;;;3.20;81.00;;;;;;4714442;30;20039;-93
2024/01/17 00:12:58;;;;;;;5.97;4.60;;;3.10;80.90;;;;;;4732048;30;20032;-93
2024/01/17 00:15:24;;;;;;;5.47;4.35;;;3.10;80.90;;;;;;4726165;30;20036;-93
2024/01/17 00:17:49;;;;;;;6.13;4.43;;;3.10;80.90;;;;;;4714955;30;20039;-93
2024/01/17 00:20:15;;;;;;;6.68;4.85;;;3.10;80.90;;;;;;4715128;30;20300;-93
2024/01/17 00:22:41;;;;;;;5.88;4.28;;;3.10;80.90;;;;;;4747374;30;20569;-93
2024/01/17 00:25:08;;;;;;;6.20;4.57;;;3.10;80.90;;;;;;4748521;30;20051;-93
2024/01/17 00:27:36;;;;;;;6.10;4.65;;;3.10;80.90;;;;;;4728807;30;20032;-93
2024/01/17 00:30:03;;;;;;;5.85;4.72;;;3.10;80.90;;;;;;4731606;30;20474;-93
2024/01/17 00:32:31;;;;;;;6.05;4.80;;;3.10;80.90;;;;;;4745664;30;20052;-92
2024/01/17 00:34:57;;;;;;;6.05;4.57;;;3.10;80.90;;;;;;4718047;30;20044;-92
2024/01/17 00:37:23;;;;;;;6.57;4.63;;;3.10;80.90;;;;;;4733659;30;20175;-92
2024/01/17 00:39:50;;;;;;;5.82;4.20;;;3.10;80.90;;;;;;4714513;30;20537;-93
2024/01/17 00:42:16;;;;;;;5.28;4.28;;;3.00;80.80;;;;;;4734676;30;20115;-93
2024/01/17 00:44:42;;;;;;;6.50;4.53;;;3.10;80.90;;;;;;4712240;30;20115;-93
2024/01/17 00:47:08;;;;;;;5.50;4.40;;;3.10;80.80;;;;;;4718469;30;20033;-93
2024/01/17 00:49:34;;;;;;;5.90;4.65;;;3.00;80.80;;;;;;4727856;30;20036;-92
2024/01/17 00:51:59;;;;;;;5.80;4.43;;;3.00;80.80;;;;;;4731766;30;20039;-93
2024/01/17 00:54:25;;;;;;;5.90;4.60;;;3.00;80.80;;;;;;4732458;30;20040;-93
2024/01/17 00:56:51;;;;;;;6.20;4.70;;;3.00;80.80;;;;;;4727914;30;20036;-93
2024/01/17 00:59:16;;;;;;;6.57;4.88;;;3.00;80.80;;;;;;4717641;30;20036;-91
2024/01/17 01:01:42;;;;;;;5.63;4.47;;;3.00;80.80;;;;;;4734471;30;20040;-93
2024/01/17 01:04:08;;;;;;;6.32;4.82;;;3.00;80.80;;;;;;4720550;30;20024;-92
2024/01/17 01:06:34;;;;;;;6.18;4.70;;;3.00;80.80;;;;;;4733759;30;20031;-92
2024/01/17 01:09:00;;;;;;;5.68;4.60;;;3.00;80.80;;;;;;4717957;30;20040;-94
2024/01/17 01:11:30;;;;;;;5.32;3.97;;;3.00;80.80;;;;;;4714519;30;20101;-93
2024/01/17 01:13:56;;;;;;;5.75;5.03;;;3.00;80.80;;;;;;4728319;30;20040;-92
2024/01/17 01:16:21;;;;;;;6.45;4.50;;;3.00;80.80;;;;;;4717125;30;20051;-94
2024/01/17 01:18:47;;;;;;;6.00;4.40;;;3.00;81.40;;;;;;4730604;30;20036;-92
2024/01/17 01:21:14;;;;;;;5.68;4.00;;;3.00;80.80;;;;;;4730664;30;20040;-93
2024/01/17 01:23:40;;;;;;;5.72;4.50;;;3.00;80.80;;;;;;4731908;30;20478;-92
2024/01/17 01:26:06;;;;;;;5.55;4.53;;;3.00;80.80;;;;;;4717246;30;20049;-93
2024/01/17 01:28:32;;;;;;;5.38;4.47;;;3.00;80.80;;;;;;4728031;30;20295;-93
2024/01/17 01:30:57;;;;;;;5.50;4.35;;;2.90;80.80;;;;;;4733391;30;20029;-92
2024/01/17 01:33:24;;;;;;;5.68;4.28;;;2.90;80.70;;;;;;4748988;30;20127;-94
2024/01/17 01:35:49;;;;;;;6.80;4.38;;;3.00;80.80;;;;;;4723140;30;20123;-93
2024/01/17 01:38:15;;;;;;;6.22;4.57;;;2.90;80.70;;;;;;4738962;30;20211;-93
2024/01/17 01:40:42;;;;;;;6.25;4.57;;;2.90;80.70;;;;;;4730330;30;20117;-93
2024/01/17 01:43:21;;;;;;;4.97;4.28;;;2.90;80.70;;;;;;4720886;30;20036;-93
2024/01/17 01:46:11;;;;;;;5.90;4.60;;;2.90;81.40;;;;;;4729463;30;20040;-94
2024/01/17 01:48:37;;;;;;;6.75;4.68;;;2.90;80.80;;;;;;4737926;30;20040;-93
2024/01/17 01:51:04;;;;;;;5.57;4.10;;;2.90;80.70;;;;;;4725922;30;20028;-94
2024/01/17 01:53:32;;;;;;;5.72;4.47;;;2.90;80.70;;;;;;4720906;30;20036;-93
2024/01/17 01:55:59;;;;;;;4.65;3.88;;;2.90;80.70;;;;;;4721167;30;20094;-93
2024/01/17 01:58:26;;;;;;;5.43;4.13;;;2.90;80.70;;;;;;4734493;30;20032;-93
2024/01/17 02:00:55;;;;;;;7.20;4.80;;;2.90;80.70;;;;;;4731368;30;20040;-93
2024/01/17 02:03:23;;;;;;;5.50;4.32;;;2.90;80.70;;;;;;4730214;30;20028;-93
2024/01/17 02:05:49;;;;;;;5.35;4.38;;;2.90;80.70;;;;;;4749003;30;20028;-95
2024/01/17 02:08:15;;;;;;;5.57;4.05;;;2.90;80.70;;;;;;4718952;30;20028;-94
2024/01/17 02:10:41;;;;;;;5.80;4.57;;;2.90;80.70;;;;;;4740610;30;20035;-93
2024/01/17 02:13:07;;;;;;;5.88;4.13;;;2.80;80.60;;;;;;4736657;30;20040;-94
2024/01/17 02:15:33;;;;;;;5.82;4.22;;;2.80;80.60;;;;;;4727383;30;20050;-94
2024/01/17 02:17:59;;;;;;;5.60;4.47;;;2.80;80.60;;;;;;4721567;30;20557;-94
2024/01/17 02:20:25;;;;;;;6.45;4.57;;;2.80;80.60;;;;;;4725564;30;20079;-93
2024/01/17 02:22:51;;;;;;;5.78;4.40;;;2.80;80.60;;;;;;4749007;30;20028;-93
2024/01/17 02:25:17;;;;;;;5.75;4.40;;;2.80;80.60;;;;;;4738588;30;20102;-93
2024/01/17 02:27:43;;;;;;;5.53;4.47;;;2.80;80.60;;;;;;4737428;30;20132;-93
2024/01/17 02:30:09;;;;;;;6.03;4.10;;;2.80;80.60;;;;;;4723732;30;20119;-93
2024/01/17 02:32:36;;;;;;;5.18;4.20;;;2.80;80.60;;;;;;4734315;30;20045;-93
2024/01/17 02:35:02;;;;;;;5.72;4.55;;;2.80;80.70;;;;;;4717773;30;20033;-93
2024/01/17 02:37:28;;;;;;;5.28;4.05;;;2.80;80.60;;;;;;4731002;30;20049;-93
2024/01/17 02:39:54;;;;;;;5.38;4.22;;;2.80;80.60;;;;;;4753787;30;20036;-92
2024/01/17 02:42:20;;;;;;;5.32;4.22;;;2.80;80.50;;;;;;4727870;30;20035;-93
2024/01/17 02:44:46;;;;;;;5.47;4.30;;;2.70;80.50;;;;;;4733189;30;20466;-93
2024/01/17 02:47:12;;;;;;;4.97;4.00;;;2.70;80.50;;;;;;4721713;30;20064;-93
2024/01/17 02:49:38;;;;;;;6.80;4.32;;;2.80;80.50;;;;;;4730557;30;20059;-92
2024/01/17 02:52:05;;;;;;;6.05;4.55;;;2.80;80.50;;;;;;4737796;30;20039;-93
2024/01/17 02:54:31;;;;;;;6.93;4.07;;;2.70;80.50;;;;;;4722449;30;20070;-93
2024/01/17 02:56:57;;;;;;;5.72;4.28;;;2.80;80.50;;;;;;4743257;30;20028;-92
2024/01/17 02:59:23;;;;;;;5.70;3.80;;;2.70;80.40;;;;;;4736016;30;20131;-93
2024/01/17 03:01:49;;;;;;;4.90;4.10;;;2.70;80.40;;;;;;4720823;30;20445;-93
2024/01/17 03:04:15;;;;;;;5.05;4.32;;;2.70;80.40;;;;;;4720363;30;20044;-92
2024/01/17 03:06:42;;;;;;;6.35;4.25;;;2.70;80.40;;;;;;4734876;30;20063;-92
2024/01/17 03:09:10;;;;;;;4.97;4.00;;;2.70;80.40;;;;;;4738299;30;20329;-93
2024/01/17 03:11:36;;;;;;;5.68;4.60;;;2.70;80.40;;;;;;4730029;30;20024;-91
2024/01/17 03:14:03;;;;;;;4.82;3.70;;;2.70;80.40;;;;;;4735305;30;20040;-92
2024/01/17 03:16:29;;;;;;;5.50;4.07;;;2.70;80.40;;;;;;4735822;30;20028;-92
2024/01/17 03:18:54;;;;;;;5.63;4.18;;;2.70;80.40;;;;;;4744529;30;20399;-92
2024/01/17 03:21:21;;;;;;;5.22;4.35;;;2.70;80.30;;;;;;4719684;30;20029;-92
2024/01/17 03:23:46;;;;;;;5.13;4.20;;;2.70;80.30;;;;;;4715955;30;20182;-88
2024/01/17 03:26:12;;;;;;;4.75;3.65;;;2.70;80.30;;;;;;4736603;30;20135;-92
2024/01/17 03:28:38;;;;;;;5.47;4.55;;;2.70;80.90;;;;;;4735385;30;20081;-91
2024/01/17 03:31:04;;;;;;;5.30;4.13;;;2.70;80.20;;;;;;4732444;30;20028;-92
2024/01/17 03:33:29;;;;;;;5.82;4.10;;;2.70;80.20;;;;;;4734998;30;20072;-92
2024/01/17 03:35:55;;;;;;;5.85;4.00;;;2.60;80.20;;;;;;4722564;30;20082;-92
2024/01/17 03:38:21;;;;;;;6.07;4.40;;;2.60;80.20;;;;;;4727591;30;20140;-91
2024/01/17 03:40:47;;;;;;;6.63;4.70;;;2.60;80.20;;;;;;4715130;30;20047;-91
2024/01/17 03:43:13;;;;;;;5.68;4.45;;;2.70;80.20;;;;;;4748053;30;20032;-92
2024/01/17 03:45:38;;;;;;;5.47;4.07;;;2.60;80.20;;;;;;4718214;30;20460;-91
2024/01/17 03:48:06;;;;;;;6.03;4.53;;;2.60;80.20;;;;;;4724029;30;20084;-92
2024/01/17 03:50:33;;;;;;;5.00;3.92;;;2.60;80.20;;;;;;4733783;30;20106;-91
2024/01/17 03:52:59;;;;;;;5.35;4.35;;;2.60;80.20;;;;;;4730314;30;20572;-92
2024/01/17 03:55:25;;;;;;;5.93;4.15;;;2.60;80.20;;;;;;4735135;30;20044;-93
2024/01/17 03:57:51;;;;;;;5.38;3.88;;;2.60;80.20;;;;;;4736743;30;20047;-92
2024/01/17 04:00:17;;;;;;;5.22;4.35;;;2.60;80.20;;;;;;4746275;30;20033;-92
2024/01/17 04:02:42;;;;;;;5.57;4.43;;;2.60;80.20;;;;;;4720269;30;20040;-92
2024/01/17 04:05:08;;;;;;;6.35;4.75;;;2.60;80.20;;;;;;4740072;30;20060;-92
2024/01/17 04:07:34;;;;;;;5.30;4.15;;;2.60;80.20;;;;;;4731066;30;20090;-92
2024/01/17 04:10:00;;;;;;;5.32;4.15;;;2.60;80.20;;;;;;4728212;30;20028;-93
2024/01/17 04:12:26;;;;;;;6.45;4.70;;;2.60;80.20;;;;;;4747384;30;20028;-92
2024/01/17 04:14:51;;;;;;;6.22;4.57;;;2.50;80.20;;;;;;4728984;30;20405;-92
2024/01/17 04:17:17;;;;;;;5.57;3.92;;;2.60;80.20;;;;;;4720936;30;20448;-92
2024/01/17 04:19:43;;;;;;;5.45;4.53;;;2.60;80.20;;;;;;4733945;30;20045;-92
2024/01/17 04:22:09;;;;;;;5.57;3.88;;;2.60;80.20;;;;;;4735150;30;20094;-92
2024/01/17 04:24:34;;;;;;;5.82;4.10;;;2.50;80.20;;;;;;4732878;30;20477;-93
2024/01/17 04:27:00;;;;;;;5.22;4.15;;;2.50;80.20;;;;;;4724839;30;20040;-93
2024/01/17 04:29:26;;;;;;;5.68;4.40;;;2.50;80.20;;;;;;4731000;30;20036;-92
2024/01/17 04:31:52;;;;;;;5.00;4.28;;;2.50;80.20;;;;;;4737594;30;20501;-91
2024/01/17 04:34:18;;;;;;;6.63;4.53;;;2.50;80.20;;;;;;4729027;30;20498;-91
2024/01/17 04:36:44;;;;;;;5.53;4.20;;;2.50;80.10;;;;;;4717120;30;20041;-91
2024/01/17 04:39:10;;;;;;;5.28;3.85;;;2.50;80.10;;;;;;4712232;30;20045;-91
2024/01/17 04:41:36;;;;;;;5.32;4.38;;;2.50;80.10;;;;;;4732132;30;20491;-91
2024/01/17 04:44:02;;;;;;;5.40;4.13;;;2.50;80.10;;;;;;4740643;30;20044;-92
2024/01/17 04:46:28;;;;;;;5.22;3.70;;;2.50;80.10;;;;;;4730198;30;20039;-92
2024/01/17 04:48:54;;;;;;;5.88;4.20;;;2.50;80.20;;;;;;4740059;30;20024;-92
2024/01/17 04:51:22;;;;;;;4.95;4.05;;;2.50;80.20;;;;;;4732537;30;20501;-92
2024/01/17 04:53:48;;;;;;;6.20;4.57;;;2.50;80.20;;;;;;4745431;30;20031;-92
2024/01/17 04:56:15;;;;;;;6.13;4.30;;;2.50;80.20;;;;;;4718468;30;20041;-92
2024/01/17 04:58:43;;;;;;;6.28;4.75;;;2.50;80.20;;;;;;4747453;30;20058;-93
2024/01/17 05:01:10;;;;;;;5.47;4.28;;;2.50;80.20;;;;;;4727100;30;20053;-92
2024/01/17 05:03:36;;;;;;;5.57;4.28;;;2.50;80.20;;;;;;4739830;30;20040;-91
2024/01/17 05:06:02;;;;;;;5.90;4.35;;;2.50;80.10;;;;;;4735730;30;20040;-92
2024/01/17 05:08:29;;;;;;;6.20;4.43;;;2.50;80.20;;;;;;4738996;30;20469;-92
2024/01/17 05:10:57;;;;;;;5.40;4.13;;;2.50;80.20;;;;;;4718706;30;20047;-92
2024/01/17 05:13:23;;;;;;;4.80;3.92;;;2.50;80.10;;;;;;4734076;30;20104;-92
2024/01/17 05:15:49;;;;;;;5.50;3.95;;;2.50;80.10;;;;;;4750026;30;20104;-92
2024/01/17 05:18:15;;;;;;;5.75;4.22;;;2.50;80.10;;;;;;4727634;30;20123;-92
2024/01/17 05:20:41;;;;;;;6.15;4.38;;;2.50;80.10;;;;;;4726497;30;20115;-93
2024/01/17 05:23:07;;;;;;;5.45;4.15;;;2.50;80.10;;;;;;4735683;30;20043;-92
2024/01/17 05:25:33;;;;;;;6.70;4.68;;;2.50;80.10;;;;;;4735077;30;20033;-92
2024/01/17 05:27:59;;;;;;;6.60;4.60;;;2.50;80.00;;;;;;4732190;30;20082;-92
2024/01/17 05:30:25;;;;;;;5.40;4.28;;;2.50;80.00;;;;;;4717715;30;20410;-91
2024/01/17 05:32:55;;;;;;;6.70;4.53;;;2.50;80.10;;;;;;4714690;30;20448;-91
2024/01/17 05:35:22;;;;;;;8.02;4.45;;;2.50;80.10;;;;;;4719382;30;20044;-93
2024/01/17 05:37:48;;;;;;;5.75;4.43;;;2.40;80.00;;;;;;4744647;30;20052;-91
2024/01/17 05:40:14;;;;;;;5.43;4.28;;;2.50;80.10;;;;;;4734700;30;20043;-92
2024/01/17 05:42:42;;;;;;;5.80;4.70;;;2.50;80.10;;;;;;4734758;30;20044;-91
2024/01/17 05:45:08;;;;;;;5.32;4.25;;;2.50;80.10;;;;;;4738929;30;20040;-96
2024/01/17 05:47:37;;;;;;;5.13;3.90;;;2.50;80.10;;;;;;4719837;30;20038;-93
2024/01/17 05:50:11;;;;;;;5.63;4.22;;;2.50;80.10;;;;;;4721612;30;20024;-95
2024/01/17 05:52:41;;;;;;;6.22;4.18;;;2.40;80.00;;;;;;4732959;30;20053;-92
2024/01/17 05:55:08;;;;;;;5.80;4.50;;;2.50;80.20;;;;;;4736349;30;20125;-92
2024/01/17 05:57:35;;;;;;;5.65;4.53;;;2.40;80.10;;;;;;4757574;30;20040;-91
2024/01/17 06:00:01;;;;;;;5.50;4.30;;;2.40;80.10;;;;;;4734891;30;20036;-92
2024/01/17 06:02:27;;;;;;;6.25;4.53;;;2.40;80.00;;;;;;4743967;30;20052;-92
2024/01/17 06:04:52;;;;;;;6.10;4.65;;;2.40;80.00;;;;;;4735733;30;20101;-91
2024/01/17 06:07:18;;;;;;;6.22;4.38;;;2.40;80.10;;;;;;4721733;30;20091;-91
2024/01/17 06:09:44;;;;;;;6.55;4.65;;;2.40;80.10;;;;;;4744947;30;20062;-91
2024/01/17 06:12:10;;;;;;;5.90;4.65;;;2.40;80.10;;;;;;4733895;30;20047;-91
2024/01/17 06:14:36;;;;;;;5.45;4.38;;;2.40;80.00;;;;;;4734272;30;20113;-88
2024/01/17 06:17:02;;;;;;;6.82;4.75;;;2.50;80.10;;;;;;4737386;30;20043;-94
2024/01/17 06:19:28;;;;;;;6.70;4.38;;;2.40;80.00;;;;;;4731713;30;20040;-88
2024/01/17 06:21:53;;;;;;;5.38;4.50;;;2.40;80.10;;;;;;4725113;30;20033;-89
2024/01/17 06:24:19;;;;;;;6.47;5.10;;;2.40;80.20;;;;;;4723875;30;20470;-90
2024/01/17 06:26:45;;;;;;;5.45;4.22;;;2.40;80.10;;;;;;4727294;30;20680;-89
2024/01/17 06:29:11;;;;;;;5.97;4.72;;;2.40;80.00;;;;;;4732458;30;20036;-90
2024/01/17 06:31:36;;;;;;;6.50;5.00;;;2.40;80.00;;;;;;4715519;30;20032;-93
2024/01/17 06:34:02;;;;;;;5.93;4.50;;;2.40;80.10;;;;;;4721678;30;20048;-89
2024/01/17 06:36:28;;;;;;;6.40;4.75;;;2.40;80.10;;;;;;4735201;30;20036;-88
2024/01/17 06:38:54;;;;;;;5.53;4.50;;;2.40;80.10;;;;;;4727341;30;20053;-88
2024/01/17 06:41:20;;;;;;;5.38;4.53;;;2.40;80.10;;;;;;4716265;30;20037;-91
2024/01/17 06:43:46;;;;;;;6.07;4.45;;;2.40;80.10;;;;;;4730327;30;20068;-91
2024/01/17 06:46:12;;;;;;;6.65;4.53;;;2.40;80.10;;;;;;4740018;30;20068;-90
2024/01/17 06:48:37;;;;;;;7.05;5.05;;;2.40;80.10;;;;;;4725255;30;20033;-89
2024/01/17 06:51:04;;;;;;;6.35;4.88;;;2.40;80.10;;;;;;4728687;30;20091;-89
2024/01/17 06:53:34;;;;;;;5.97;4.78;;;2.40;80.10;;;;;;4730520;30;20074;-89
2024/01/17 06:56:00;;;;;;;5.90;4.70;;;2.40;80.10;;;;;;4736214;30;20032;-90
2024/01/17 06:58:26;;;;;;;6.40;4.63;;;2.40;80.10;;;;;;4717566;30;20386;-90
2024/01/17 07:00:53;;;;;;;6.30;4.60;;;2.40;80.00;;;;;;4738131;30;20398;-89
2024/01/17 07:03:20;;;;;;;5.70;4.68;;;2.40;80.00;;;;;;4744476;30;20126;-86
2024/01/17 07:05:45;;;;;;;6.40;4.28;;;2.40;80.10;;;;;;4736699;30;20055;-91
2024/01/17 07:08:11;;;;;;;6.88;4.68;;;2.40;80.10;;;;;;4735696;30;20020;-92
2024/01/17 07:10:38;;;;;;;6.60;5.20;;;2.40;80.10;;;;;;4733753;30;20107;-92
2024/01/17 07:13:04;;;;;;;5.70;4.80;;;2.40;80.10;;;;;;4732378;30;20153;-89
2024/01/17 07:15:31;;;;;;;6.53;5.40;;;2.40;80.00;;;;;;4737425;30;20045;-89
2024/01/17 07:17:58;;;;;;;6.78;4.95;;;2.40;80.10;;;;;;4735304;30;20072;-88
2024/01/17 07:20:24;;;;;;;6.75;4.72;;;2.40;80.20;;;;;;4717723;30;20060;-89
2024/01/17 07:22:50;;;;;;;5.97;4.82;;;2.30;80.10;;;;;;4730284;30;20137;-88
2024/01/17 07:25:16;;;;;;;6.18;4.63;;;2.30;80.20;;;;;;4724295;30;20669;-88
2024/01/17 07:27:44;;;;;;;7.10;5.45;;;2.30;80.20;;;;;;4715889;30;20035;-88
2024/01/17 07:30:11;;;;;;;6.13;5.03;;;2.30;80.20;;;;;;4719548;30;20017;-89
2024/01/17 07:32:38;;;;;;;5.85;4.93;;;2.30;80.10;;;;;;4730581;30;20083;-88
2024/01/17 07:35:04;;;;;;;6.90;5.22;;;2.30;80.10;;;;;;4721195;30;20037;-89
2024/01/17 07:37:31;;;;;;;7.57;5.38;;;2.30;80.10;;;;;;4712172;30;20053;-87
2024/01/17 07:39:57;;;;;;;6.88;4.82;;;2.30;80.10;;;;;;4697273;30;20033;-89
2024/01/17 07:42:23;;;;;;;7.28;5.00;;;2.30;80.10;;;;;;4699968;30;20034;-92
2024/01/17 07:44:49;;;;;;;5.97;4.82;;;2.30;80.10;;;;;;4714922;30;20044;-91
2024/01/17 07:47:15;;;;;;;6.20;5.10;;;2.30;80.10;;;;;;4718862;30;20032;-92
2024/01/17 07:49:42;;;;;;;6.30;5.07;;;2.30;80.10;;;;;;4729989;30;20041;-93
2024/01/17 07:52:08;;;;;;;6.60;5.40;;;2.30;80.20;;;;;;4730148;30;20029;-92
2024/01/17 07:54:34;;;;;;;6.22;4.70;;;2.30;80.10;;;;;;4738212;30;20665;-91
2024/01/17 07:56:59;;;;;;;7.10;5.05;;;2.30;80.10;;;;;;4713581;30;20085;-92
2024/01/17 07:59:28;;;;;;;6.22;4.82;;;2.30;80.20;;;;;;4723762;30;20116;-91
2024/01/17 08:01:54;;;;;;;7.72;5.25;;;2.30;80.80;;;;;;4715159;30;20056;-91
2024/01/17 08:04:21;;;;;;;6.85;5.45;;;2.30;80.20;;;;;;4697349;30;20037;-90
2024/01/17 08:06:46;;;;;;;6.32;4.97;;;2.30;80.20;;;;;;4731772;30;20033;-95
2024/01/17 08:09:22;;;;;;;6.00;4.80;;;2.30;80.20;;;;;;4717923;30;20025;-93
2024/01/17 08:11:52;;;;;;;6.57;5.00;;;2.30;80.20;;;;;;4702722;30;20029;-93
2024/01/17 08:14:18;;;;;;;6.82;4.90;;;2.30;80.20;;;;;;4715288;30;20056;-92
2024/01/17 08:16:45;;;;;;;6.55;4.55;;;2.30;80.20;;;;;;4714612;30;20068;-93
2024/01/17 08:19:11;;;;;;;6.68;4.78;;;2.30;80.20;;;;;;4710348;30;20029;-93
2024/01/17 08:21:37;;;;;;;7.47;5.50;;;2.30;80.20;;;;;;4704612;30;20036;-93
2024/01/17 08:24:03;;;;;;;6.63;5.00;;;2.30;80.20;;;;;;4702843;30;20025;-94
2024/01/17 08:26:29;;;;;;;6.93;4.97;;;2.30;80.20;;;;;;4699893;30;20506;-94
2024/01/17 08:28:56;;;;;;;6.25;5.00;;;2.30;80.20;;;;;;4704743;30;20037;-95
2024/01/17 08:31:22;;;;;;;7.18;5.15;;;2.30;80.20;;;;;;4703875;30;20113;-94
2024/01/17 08:33:49;;;;;;;7.25;4.82;;;2.30;80.20;;;;;;4719807;30;20049;-94
2024/01/17 08:36:15;;;;;;;6.82;5.10;;;2.30;80.20;;;;;;4715562;30;20097;-94
2024/01/17 08:38:41;;;;;;;6.47;5.28;;;2.30;80.20;;;;;;4736933;30;20045;-94
2024/01/17 08:41:09;;;;;;;6.80;4.97;;;2.30;80.20;;;;;;4719407;30;20483;-94
2024/01/17 08:43:35;;;;;;;6.28;4.72;;;2.30;80.20;;;;;;4732088;30;20183;-93
2024/01/17 08:46:02;;;;;;;6.65;4.82;;;2.30;80.10;;;;;;4729888;30;20045;-93
2024/01/17 08:48:29;;;;;;;6.85;5.43;;;2.30;80.00;;;;;;4727758;30;20025;-94
2024/01/17 08:50:56;;;;;;;5.90;4.50;;;2.40;80.10;;;;;;4729249;30;20032;-94
2024/01/17 08:53:23;;;;;;;5.97;5.00;;;2.30;80.10;;;;;;4729280;30;20032;-94
2024/01/17 08:55:50;;;;;;;6.20;4.68;;;2.30;80.10;;;;;;4730367;30;20032;-93
2024/01/17 08:58:15;;;;;;;6.55;4.97;;;2.30;80.10;;;;;;4717949;30;20256;-93
2024/01/17 09:00:41;;;;;;;7.80;4.80;;;2.30;80.10;;;;;;4717156;30;20029;-94
2024/01/17 09:03:08;;;;;;;6.60;5.25;;;2.40;80.20;;;;;;4731632;30;20091;-94
2024/01/17 09:05:34;;;;;;;7.15;5.05;;;2.40;80.20;;;;;;4736311;30;20123;-94
2024/01/17 09:07:59;;;;;;;7.80;4.85;;;2.40;80.20;;;;;;4716929;30;20063;-94
2024/01/17 09:10:25;;;;;;;7.22;5.45;;;2.40;80.20;;;;;;4724333;30;20063;-94
2024/01/17 09:12:51;;;;;;;6.40;4.70;;;2.40;80.20;;;;;;4724552;30;20040;-90
2024/01/17 09:15:17;;;;;;;6.40;5.15;;;2.40;80.20;;;;;;4735875;30;20375;-94
2024/01/17 09:17:43;;;;;;;6.53;5.03;;;2.40;80.20;;;;;;4737633;30;20024;-94
2024/01/17 09:20:09;;;;;;;7.45;5.35;;;2.40;80.20;;;;;;4723121;30;20056;-87
2024/01/17 09:22:35;;;;;;;7.25;5.05;;;2.40;80.20;;;;;;4728751;30;20456;-95
2024/01/17 09:25:02;;;;;;;6.45;4.47;;;2.40;80.20;;;;;;4737103;30;20033;-96
2024/01/17 09:27:29;;;;;;;7.72;5.70;;;2.40;80.20;;;;;;4735094;30;20032;-90
2024/01/17 09:29:55;;;;;;;6.20;4.55;;;2.40;80.20;;;;;;4719005;30;20112;-92
2024/01/17 09:32:21;;;;;;;7.55;5.20;;;2.40;80.20;;;;;;4718232;30;20039;-93
2024/01/17 09:34:49;;;;;;;6.88;5.15;;;2.50;80.20;;;;;;4733532;30;20716;-91
2024/01/17 09:37:16;;;;;;;7.10;5.15;;;2.40;80.20;;;;;;4712802;30;20052;-94
2024/01/17 09:39:42;;;;;;;6.43;4.93;;;2.50;80.20;;;;;;4708880;30;20049;-94
2024/01/17 09:42:07;;;;;;;7.38;5.00;;;2.50;80.20;;;;;;4712209;30;20113;-93
2024/01/17 09:44:34;;;;;;;6.88;5.10;;;2.50;80.20;;;;;;4702842;30;20041;-93
2024/01/17 09:47:01;;;;;;;6.65;5.18;;;2.50;80.20;;;;;;4702848;30;20057;-94
2024/01/17 09:49:36;;;;;;;7.20;5.85;;;2.50;80.20;;;;;;4714283;30;20112;-94
2024/01/17 09:52:04;;;;;;;6.40;5.10;;;2.50;80.20;;;;;;4704272;30;20025;-93
2024/01/17 09:54:36;;;;;;;7.38;5.15;;;2.50;80.20;;;;;;4709415;30;20495;-92
2024/01/17 09:57:08;;;;;;;6.72;4.88;;;2.50;80.80;;;;;;4715338;30;20125;-93
2024/01/17 09:59:45;;;;;;;7.60;5.22;;;2.50;80.20;;;;;;4712557;30;20551;-90
2024/01/17 10:02:12;;;;;;;7.45;5.32;;;2.50;80.20;;;;;;4733136;30;20184;-93
2024/01/17 10:04:43;;;;;;;7.50;5.40;;;2.50;80.30;;;;;;4706645;30;20057;-94
2024/01/17 10:07:09;;;;;;;6.63;4.88;;;2.50;80.30;;;;;;4713681;30;20044;-95
2024/01/17 10:09:34;;;;;;;7.43;5.20;;;2.60;80.30;;;;;;4708463;30;20034;-96
2024/01/17 10:12:00;;;;;;;6.18;5.10;;;2.60;80.30;;;;;;4716093;30;20044;-96
2024/01/17 10:14:27;;;;;;;6.95;5.15;;;2.60;80.20;;;;;;4723833;30;20407;-95
2024/01/17 10:16:53;;;;;;;6.90;5.15;;;2.60;80.20;;;;;;4732229;30;20036;-96
2024/01/17 10:19:19;;;;;;;6.75;5.25;;;2.60;80.20;;;;;;4722497;30;20044;-95
2024/01/17 10:21:44;;;;;;;7.95;5.80;;;2.60;80.20;;;;;;4708141;30;20495;-95
2024/01/17 10:24:11;;;;;;;6.78;5.07;;;2.60;80.20;;;;;;4726199;30;20065;-95
2024/01/17 10:26:46;;;;;;;6.93;5.55;;;2.60;80.20;;;;;;4714934;30;20039;-95
2024/01/17 10:29:12;;;;;;;6.50;4.88;;;2.70;80.30;;;;;;4699575;30;20441;-96
2024/01/17 10:31:41;;;;;;;7.15;4.90;;;2.70;80.30;;;;;;4706190;30;20048;-95
2024/01/17 10:34:08;;;;;;;6.63;5.13;;;2.70;80.30;;;;;;4701118;30;20033;-94
2024/01/17 10:36:38;;;;;;;7.35;5.60;;;2.70;80.30;;;;;;4700006;30;20033;-91
2024/01/17 10:39:04;;;;;;;6.47;5.20;;;2.70;80.30;;;;;;4715220;30;20067;-91
2024/01/17 10:41:32;;;;;;;6.65;5.10;;;2.70;80.30;;;;;;4724579;30;20137;-91
2024/01/17 10:44:02;;;;;;;6.57;5.35;;;2.70;80.30;;;;;;4726462;30;20040;-93
2024/01/17 10:46:28;;;;;;;7.13;5.63;;;2.70;80.20;;;;;;4719884;30;20095;-91
2024/01/17 10:48:56;;;;;;;8.05;5.68;;;2.70;80.20;;;;;;4737186;30;20051;-92
2024/01/17 10:51:23;;;;;;;6.90;5.13;;;2.80;80.30;;;;;;4729660;30;20040;-90
2024/01/17 10:53:54;;;;;;;6.13;4.63;;;2.80;80.30;;;;;;4722946;30;20120;-93
2024/01/17 10:56:21;;;;;;;6.80;5.30;;;2.80;80.30;;;;;;4735710;30;20032;-90
2024/01/17 10:58:51;;;;;;;8.18;5.72;;;2.80;80.30;;;;;;4727970;30;20068;-91
2024/01/17 11:01:24;;;;;;;7.72;5.60;;;2.80;80.30;;;;;;4729413;30;20029;-91
2024/01/17 11:03:53;;;;;;;6.65;5.25;;;2.90;80.40;;;;;;4712646;30;20025;-91
2024/01/17 11:06:20;;;;;;;6.55;5.13;;;2.80;80.30;;;;;;4736794;30;20040;-92
2024/01/17 11:08:47;;;;;;;6.80;5.68;;;2.90;80.30;;;;;;4718129;30;20036;-92
2024/01/17 11:11:15;;;;;;;6.85;5.05;;;2.90;80.40;;;;;;4731905;30;20033;-92
2024/01/17 11:13:42;;;;;;;7.57;5.70;;;2.90;80.40;;;;;;4716181;30;20040;-89
2024/01/17 11:16:11;;;;;;;6.80;5.13;;;2.90;80.30;;;;;;4721791;30;20142;-91
2024/01/17 11:18:37;;;;;;;7.85;5.72;;;2.90;80.40;;;;;;4717814;30;20045;-91
2024/01/17 11:21:05;;;;;;;8.60;6.07;;;2.90;80.30;;;;;;4727718;30;20111;-90
2024/01/17 11:23:57;;;;;;;6.82;4.95;;;2.90;80.40;;;;;;4721216;30;20033;-91
2024/01/17 11:26:32;;;;;;;7.10;5.50;;;3.00;80.40;;;;;;4715153;30;20040;-90
2024/01/17 11:29:09;;;;;;;6.85;5.32;;;3.00;80.30;;;;;;4736215;30;20502;-90
2024/01/17 11:31:54;;;;;;;6.72;5.28;;;2.90;80.30;;;;;;4730753;30;20092;-89
2024/01/17 11:34:20;;;;;;;7.27;5.50;;;3.00;80.40;;;;;;4727935;30;20041;-95
2024/01/17 11:36:47;;;;;;;7.18;5.00;;;3.00;80.40;;;;;;4728171;30;20025;-90
2024/01/17 11:39:17;;;;;;;7.07;5.40;;;3.00;80.40;;;;;;4717831;30;20036;-93
2024/01/17 11:41:49;;;;;;;7.93;4.97;;;3.00;80.40;;;;;;4741130;30;20028;-93
2024/01/17 11:44:17;;;;;;;6.72;5.35;;;3.00;80.40;;;;;;4712790;30;20032;-92
2024/01/17 11:46:51;;;;;;;7.57;5.90;;;3.00;80.40;;;;;;4717143;30;20047;-91
2024/01/17 11:49:40;;;;;;;7.65;5.53;;;3.00;80.40;;;;;;4734699;30;20370;-88
2024/01/17 11:52:31;;;;;;;6.85;5.22;;;3.00;80.40;;;;;;4739481;30;20036;-94
2024/01/17 11:54:59;;;;;;;7.35;6.10;;;3.00;80.50;;;;;;4753855;30;20032;-95
2024/01/17 11:57:26;;;;;;;7.82;5.47;;;3.00;80.40;;;;;;4735390;30;20056;-91
2024/01/17 12:00:21;;;;;;;8.07;5.82;;;3.10;80.50;;;;;;4741386;30;20031;-94
2024/01/17 12:02:47;;;;;;;6.75;5.20;;;3.10;80.60;;;;;;4732638;30;20487;-93
2024/01/17 12:05:13;;;;;;;7.20;5.53;;;3.00;80.50;;;;;;4738590;30;20097;-93
2024/01/17 12:07:44;;;;;;;7.20;5.82;;;3.10;80.60;;;;;;4736910;30;20123;-95
2024/01/17 12:10:12;;;;;;;7.85;5.60;;;3.10;80.70;;;;;;4749940;30;20033;-92
2024/01/17 12:12:42;;;;;;;7.32;5.68;;;3.10;80.60;;;;;;4735509;30;20051;-91
2024/01/17 12:15:11;;;;;;;7.68;5.80;;;3.10;80.60;;;;;;4728846;30;20051;-95
2024/01/17 12:17:38;;;;;;;8.23;6.10;;;3.10;80.60;;;;;;4745013;30;20506;-96
2024/01/17 12:20:07;;;;;;;7.25;6.10;;;3.10;80.60;;;;;;4744487;30;20060;-93
2024/01/17 12:22:34;;;;;;;7.55;6.13;;;3.10;80.60;;;;;;4733956;30;20098;-94
2024/01/17 12:25:00;;;;;;;6.55;4.93;;;3.10;80.60;;;;;;4751454;30;20044;-96
2024/01/17 12:27:30;;;;;;;8.73;6.15;;;3.10;80.60;;;;;;4737232;30;20035;-94
2024/01/17 12:30:01;;;;;;;7.22;6.00;;;3.20;80.70;;;;;;4718917;30;20040;-95
2024/01/17 12:32:27;;;;;;;7.55;5.68;;;3.20;80.70;;;;;;4730588;30;20067;-96
2024/01/17 12:34:53;;;;;;;6.35;5.40;;;3.20;80.70;;;;;;4745083;30;20135;-93
2024/01/17 12:37:19;;;;;;;6.78;4.97;;;3.10;80.60;;;;;;4744271;30;20102;-93
2024/01/17 12:39:45;;;;;;;7.93;6.07;;;3.20;80.70;;;;;;4727641;30;20505;-92
2024/01/17 12:42:11;;;;;;;7.32;5.32;;;3.20;80.70;;;;;;4749577;30;20058;-90
2024/01/17 12:44:37;;;;;;;7.40;5.57;;;3.20;80.70;;;;;;4722512;30;20396;-90
2024/01/17 12:47:03;;;;;;;7.65;5.40;;;3.20;80.70;;;;;;4729837;30;20039;-94
2024/01/17 12:49:29;;;;;;;7.00;5.55;;;3.20;80.70;;;;;;4735566;30;20079;-93
2024/01/17 12:51:55;;;;;;;7.10;5.53;;;3.20;80.70;;;;;;4738124;30;20036;-93
2024/01/17 12:54:22;;;;;;;8.10;6.40;;;3.20;80.70;;;;;;4734906;30;20039;-96
2024/01/17 12:56:49;;;;;;;7.28;5.57;;;3.20;80.70;;;;;;4722251;30;20040;-94